Red Wing, Minnesota
Current Conditions -  °F | °C
As of 6:51 AM on Friday 24 Oct 2014 (Local Time) from KRGK Reporting Station
Haze Haze  
Wind Chill: 45°   Ceiling: Unl
Heat Index: 48°   Visibility: 5mi
Dew Point: 46°   Wind: 8mph
Humidity: 93%   Direction: 130°SE
Pressure: 29.93"   Gusts: NA
Location:  44.57°N, 92.53°W
Report Text: KRGK 241151Z AUTO 13007KT 5SM BR SCT004 09/08 A2993 RMK AO2
Loading
Personal Weather Stations






























Interactive Weather Map
Tropical Storm Tracking
New forecast layout! Learn more

10-Day Weather Forecast

Advertisements
Track Severe Weather on mobile